SUR4140 SAWC-SAEZ
Flight info
| Callsign | SUR4140 |
|---|---|
| Flight time | N/A |
| Altitude | 35000 |
| Route | BOKUK UW48 CRV UP664 TRE UT693 BCA UW22 VALOS |
| Aircraft | B738/M-V/N |
Departure
| Time | 2026-05-06 11:19 |
|---|---|
| Airport | El Calafate - Commander Armando Tola International Airport (SAWC) |
Arrival
| Time | N/A |
|---|---|
| Airport | Ezeiza International Airport - Ministro Pistarini (SAEZ) |
| Time | Latitude | Longitude | Altitude | Speed | Heading |
|---|---|---|---|---|---|
| 2026-05-06 11:08 | -50.28326 | -72.05315 | 640 ft | 0 kts | 232° |
| 2026-05-06 11:10 | -50.28325 | -72.05314 | 640 ft | 2 kts | 232° |
| 2026-05-06 11:10 | -50.28315 | -72.05294 | 641 ft | 2 kts | 232° |
| 2026-05-06 11:11 | -50.28302 | -72.05282 | 643 ft | 2 kts | 176° |
| 2026-05-06 11:11 | -50.28286 | -72.05284 | 642 ft | 2 kts | 176° |
| 2026-05-06 11:11 | -50.28270 | -72.05286 | 642 ft | 2 kts | 179° |
| 2026-05-06 11:11 | -50.28256 | -72.05275 | 643 ft | 2 kts | 253° |
| 2026-05-06 11:12 | -50.28255 | -72.05262 | 642 ft | 0 kts | 272° |
| 2026-05-06 11:15 | -50.28255 | -72.05269 | 641 ft | 3 kts | 272° |
| 2026-05-06 11:15 | -50.28247 | -72.05357 | 640 ft | 13 kts | 295° |
| 2026-05-06 11:15 | -50.28137 | -72.05410 | 640 ft | 22 kts | 353° |
| 2026-05-06 11:16 | -50.28024 | -72.05362 | 642 ft | 20 kts | 74° |
| 2026-05-06 11:16 | -50.28009 | -72.05150 | 643 ft | 19 kts | 84° |
| 2026-05-06 11:16 | -50.27996 | -72.04943 | 646 ft | 19 kts | 84° |
| 2026-05-06 11:16 | -50.27983 | -72.04743 | 643 ft | 18 kts | 84° |
| 2026-05-06 11:17 | -50.27971 | -72.04551 | 642 ft | 18 kts | 85° |
| 2026-05-06 11:17 | -50.27961 | -72.04363 | 641 ft | 18 kts | 85° |
| 2026-05-06 11:17 | -50.27950 | -72.04149 | 640 ft | 21 kts | 84° |
| 2026-05-06 11:17 | -50.27936 | -72.03925 | 639 ft | 20 kts | 84° |
| 2026-05-06 11:18 | -50.27946 | -72.03711 | 640 ft | 20 kts | 112° |
| 2026-05-06 11:18 | -50.27934 | -72.03632 | 641 ft | 3 kts | 334° |
| 2026-05-06 11:18 | -50.27926 | -72.03664 | 642 ft | 3 kts | 289° |
| 2026-05-06 11:18 | -50.27927 | -72.03702 | 641 ft | 5 kts | 267° |
| 2026-05-06 11:19 | -50.27957 | -72.04245 | 641 ft | 99 kts | 264° |
| 2026-05-06 11:19 | -50.28049 | -72.05771 | 642 ft | 173 kts | 265° |
| 2026-05-06 11:19 | -50.28163 | -72.07751 | 1035 ft | 185 kts | 265° |
| 2026-05-06 11:19 | -50.28288 | -72.09856 | 1426 ft | 205 kts | 265° |
| 2026-05-06 11:20 | -50.28420 | -72.12065 | 2048 ft | 203 kts | 265° |
| 2026-05-06 11:20 | -50.28548 | -72.14211 | 2842 ft | 194 kts | 264° |
| 2026-05-06 11:20 | -50.28671 | -72.16272 | 3631 ft | 190 kts | 264° |
| 2026-05-06 11:20 | -50.28795 | -72.18358 | 4568 ft | 193 kts | 265° |
| 2026-05-06 11:21 | -50.28907 | -72.20449 | 5566 ft | 195 kts | 266° |
| 2026-05-06 11:21 | -50.28985 | -72.22546 | 6427 ft | 196 kts | 267° |
| 2026-05-06 11:21 | -50.29104 | -72.24828 | 6786 ft | 221 kts | 264° |
| 2026-05-06 11:21 | -50.29272 | -72.27331 | 7005 ft | 249 kts | 264° |
| 2026-05-06 11:22 | -50.29457 | -72.30074 | 7348 ft | 272 kts | 264° |
| 2026-05-06 11:22 | -50.29398 | -72.33133 | 8163 ft | 279 kts | 287° |
| 2026-05-06 11:22 | -50.28426 | -72.35689 | 9075 ft | 281 kts | 316° |
| 2026-05-06 11:22 | -50.26753 | -72.37261 | 9951 ft | 286 kts | 344° |
| 2026-05-06 11:23 | -50.24790 | -72.37465 | 10557 ft | 301 kts | 10° |
| 2026-05-06 11:23 | -50.22792 | -72.36065 | 10773 ft | 329 kts | 37° |
| 2026-05-06 11:23 | -50.20990 | -72.33651 | 10993 ft | 353 kts | 43° |
| 2026-05-06 11:23 | -50.19189 | -72.30954 | 11463 ft | 364 kts | 44° |
| 2026-05-06 11:24 | -50.17374 | -72.28246 | 12121 ft | 368 kts | 43° |
| 2026-05-06 11:24 | -50.15464 | -72.25559 | 12842 ft | 371 kts | 41° |
| 2026-05-06 11:24 | -50.13487 | -72.22934 | 13494 ft | 375 kts | 40° |
| 2026-05-06 11:24 | -50.11476 | -72.20303 | 14116 ft | 380 kts | 40° |
| 2026-05-06 11:25 | -50.09462 | -72.17661 | 14732 ft | 384 kts | 40° |
| 2026-05-06 11:25 | -50.07399 | -72.14934 | 15397 ft | 386 kts | 40° |
| 2026-05-06 11:25 | -50.05349 | -72.12210 | 16057 ft | 388 kts | 40° |
| 2026-05-06 11:25 | -50.03290 | -72.09464 | 16674 ft | 391 kts | 40° |
| 2026-05-06 11:26 | -50.01213 | -72.06693 | 17208 ft | 396 kts | 40° |
| 2026-05-06 11:26 | -49.99131 | -72.03911 | 17729 ft | 400 kts | 40° |
| 2026-05-06 11:26 | -49.97024 | -72.01077 | 18282 ft | 403 kts | 41° |
| 2026-05-06 11:26 | -49.94897 | -71.98205 | 18813 ft | 406 kts | 41° |
| 2026-05-06 11:27 | -49.92762 | -71.95318 | 19331 ft | 409 kts | 41° |
| 2026-05-06 11:27 | -49.90606 | -71.92409 | 19852 ft | 412 kts | 41° |
| 2026-05-06 11:27 | -49.88432 | -71.89478 | 20341 ft | 415 kts | 41° |
| 2026-05-06 11:27 | -49.86247 | -71.86540 | 20814 ft | 418 kts | 40° |
| 2026-05-06 11:28 | -49.84038 | -71.83574 | 21274 ft | 421 kts | 40° |
| 2026-05-06 11:28 | -49.81813 | -71.80590 | 21714 ft | 424 kts | 40° |
| 2026-05-06 11:28 | -49.79574 | -71.77593 | 22083 ft | 428 kts | 40° |
| 2026-05-06 11:28 | -49.77310 | -71.74565 | 22516 ft | 430 kts | 40° |
| 2026-05-06 11:29 | -49.75100 | -71.71614 | 22975 ft | 431 kts | 40° |
| 2026-05-06 11:29 | -49.72791 | -71.68534 | 23354 ft | 435 kts | 40° |
| 2026-05-06 11:29 | -49.70498 | -71.65481 | 23730 ft | 438 kts | 40° |
| 2026-05-06 11:29 | -49.68182 | -71.62400 | 24100 ft | 440 kts | 40° |
| 2026-05-06 11:30 | -49.65862 | -71.59317 | 24477 ft | 442 kts | 40° |
| 2026-05-06 11:30 | -49.63523 | -71.56213 | 24842 ft | 444 kts | 40° |
| 2026-05-06 11:30 | -49.61171 | -71.53097 | 25190 ft | 446 kts | 40° |
| 2026-05-06 11:30 | -49.58805 | -71.49966 | 25514 ft | 449 kts | 40° |
| 2026-05-06 11:31 | -49.56451 | -71.46856 | 25852 ft | 450 kts | 40° |
| 2026-05-06 11:31 | -49.54050 | -71.43686 | 26163 ft | 453 kts | 40° |
| 2026-05-06 11:31 | -49.51648 | -71.40521 | 26444 ft | 455 kts | 40° |
| 2026-05-06 11:31 | -49.49239 | -71.37349 | 26725 ft | 458 kts | 40° |
| 2026-05-06 11:32 | -49.46894 | -71.34267 | 26993 ft | 460 kts | 40° |
| 2026-05-06 11:32 | -49.44373 | -71.30957 | 27279 ft | 461 kts | 40° |
| 2026-05-06 11:32 | -49.41931 | -71.27756 | 27547 ft | 463 kts | 40° |
| 2026-05-06 11:32 | -49.39473 | -71.24538 | 27825 ft | 465 kts | 40° |
| 2026-05-06 11:33 | -49.37063 | -71.21387 | 28071 ft | 466 kts | 40° |
| 2026-05-06 11:33 | -49.34535 | -71.18086 | 28268 ft | 469 kts | 40° |
| 2026-05-06 11:33 | -49.32036 | -71.14829 | 28453 ft | 472 kts | 40° |
| 2026-05-06 11:33 | -49.29528 | -71.11562 | 28728 ft | 472 kts | 40° |
| 2026-05-06 11:34 | -49.27036 | -71.08322 | 29144 ft | 469 kts | 40° |
| 2026-05-06 11:34 | -49.24551 | -71.05096 | 29558 ft | 467 kts | 40° |
| 2026-05-06 11:34 | -49.22074 | -71.01884 | 29883 ft | 466 kts | 40° |
| 2026-05-06 11:34 | -49.19604 | -70.98686 | 30173 ft | 466 kts | 40° |
| 2026-05-06 11:35 | -49.17968 | -70.96570 | 30380 ft | 466 kts | 40° |
| 2026-05-06 11:35 | -49.14736 | -70.92396 | 30784 ft | 465 kts | 40° |
| 2026-05-06 11:35 | -49.12262 | -70.89205 | 31088 ft | 465 kts | 40° |
| 2026-05-06 11:35 | -49.09795 | -70.86027 | 31344 ft | 466 kts | 40° |
| 2026-05-06 11:36 | -49.08150 | -70.83910 | 31495 ft | 466 kts | 40° |
| 2026-05-06 11:36 | -49.04881 | -70.79710 | 31831 ft | 467 kts | 40° |
| 2026-05-06 11:36 | -49.02398 | -70.76524 | 32156 ft | 465 kts | 40° |
| 2026-05-06 11:36 | -48.99989 | -70.73438 | 32505 ft | 463 kts | 40° |
| 2026-05-06 11:37 | -48.97468 | -70.70214 | 32798 ft | 463 kts | 40° |
| 2026-05-06 11:37 | -48.95148 | -70.67249 | 33008 ft | 464 kts | 40° |
| 2026-05-06 11:37 | -48.92681 | -70.64101 | 33261 ft | 464 kts | 40° |
| 2026-05-06 11:37 | -48.91006 | -70.61966 | 33457 ft | 463 kts | 40° |
| 2026-05-06 11:38 | -48.88545 | -70.58833 | 33758 ft | 462 kts | 40° |
| 2026-05-06 11:38 | -48.86120 | -70.55749 | 34034 ft | 461 kts | 40° |
| 2026-05-06 11:38 | -48.83657 | -70.52621 | 34334 ft | 460 kts | 40° |
| 2026-05-06 11:38 | -48.81207 | -70.49514 | 34690 ft | 457 kts | 39° |
| 2026-05-06 11:39 | -48.78775 | -70.46433 | 34984 ft | 456 kts | 39° |
| 2026-05-06 11:39 | -48.73873 | -70.40237 | 35013 ft | 466 kts | 39° |
| 2026-05-06 11:40 | -48.68858 | -70.33914 | 35005 ft | 471 kts | 39° |
| 2026-05-06 11:40 | -48.63819 | -70.27577 | 34998 ft | 472 kts | 39° |
| 2026-05-06 11:41 | -48.58760 | -70.21233 | 35002 ft | 473 kts | 39° |
| 2026-05-06 11:41 | -48.53821 | -70.15055 | 34997 ft | 473 kts | 39° |
| 2026-05-06 11:42 | -48.48750 | -70.08727 | 34998 ft | 473 kts | 39° |
| 2026-05-06 11:42 | -48.43681 | -70.02488 | 34998 ft | 473 kts | 37° |
| 2026-05-06 11:43 | -48.38349 | -69.96713 | 35002 ft | 472 kts | 34° |
| 2026-05-06 11:43 | -48.32938 | -69.91141 | 35004 ft | 471 kts | 34° |
| 2026-05-06 11:44 | -48.24859 | -69.82744 | 35004 ft | 470 kts | 34° |
| 2026-05-06 11:44 | -48.19501 | -69.77126 | 35002 ft | 470 kts | 35° |
| 2026-05-06 11:45 | -48.14137 | -69.71505 | 35005 ft | 470 kts | 34° |
| 2026-05-06 11:45 | -48.08777 | -69.65905 | 34996 ft | 470 kts | 34° |
| 2026-05-06 11:46 | -48.03401 | -69.60306 | 34999 ft | 471 kts | 34° |
| 2026-05-06 11:46 | -47.98028 | -69.54726 | 35000 ft | 471 kts | 34° |
| 2026-05-06 11:47 | -47.92649 | -69.49154 | 34999 ft | 471 kts | 34° |
| 2026-05-06 11:47 | -47.87269 | -69.43595 | 35006 ft | 471 kts | 34° |
| 2026-05-06 11:48 | -47.81888 | -69.38049 | 34999 ft | 471 kts | 34° |
| 2026-05-06 11:48 | -47.76497 | -69.32508 | 34998 ft | 470 kts | 34° |
| 2026-05-06 11:49 | -47.71114 | -69.26989 | 35005 ft | 470 kts | 34° |
| 2026-05-06 11:49 | -47.65730 | -69.21483 | 34996 ft | 470 kts | 34° |
| 2026-05-06 11:50 | -47.60341 | -69.15986 | 35006 ft | 470 kts | 34° |
| 2026-05-06 11:50 | -47.54953 | -69.10503 | 34996 ft | 470 kts | 34° |
| 2026-05-06 11:51 | -47.49560 | -69.05031 | 34993 ft | 470 kts | 34° |
| 2026-05-06 11:51 | -47.44149 | -68.99553 | 35010 ft | 471 kts | 34° |
| 2026-05-06 11:52 | -47.38737 | -68.94088 | 35005 ft | 471 kts | 34° |
| 2026-05-06 11:52 | -47.33322 | -68.88634 | 34996 ft | 472 kts | 34° |
| 2026-05-06 11:53 | -47.27901 | -68.83188 | 34995 ft | 471 kts | 34° |
| 2026-05-06 11:53 | -47.22484 | -68.77759 | 35000 ft | 471 kts | 34° |
| 2026-05-06 11:54 | -47.17078 | -68.72356 | 35000 ft | 469 kts | 34° |
| 2026-05-06 11:54 | -47.11671 | -68.66964 | 35000 ft | 469 kts | 34° |
| 2026-05-06 11:55 | -47.06284 | -68.61607 | 35012 ft | 468 kts | 34° |
| 2026-05-06 11:55 | -47.00888 | -68.56253 | 34999 ft | 467 kts | 34° |
| 2026-05-06 11:56 | -46.95540 | -68.50960 | 34995 ft | 467 kts | 34° |
| 2026-05-06 11:56 | -46.90163 | -68.45651 | 34996 ft | 466 kts | 34° |
| 2026-05-06 11:57 | -46.84785 | -68.40355 | 35008 ft | 466 kts | 34° |
| 2026-05-06 11:57 | -46.79397 | -68.35061 | 35003 ft | 466 kts | 33° |